YTHI weather

Thistle Island Airport
Thistle Island, South Australia, Australia

Public forecast

Using degrees Celsius for public forecast. Weather courtesy of forecast.io.

METAR (pilot weather report)

Closest report is Adelaide International Airport, 115.7 nm (214.4 km) E. Retrieved 2019/03/26 10:00 UTC (15 minutes ago):

YPAD 261000Z 14008KT CAVOK 17/10 Q1023 NOSIG

TAF (pilot weather forecast)

Closest forecast is Adelaide International Airport, 115.7 nm (214.4 km) E. Retrieved 2019/03/26 06:00 UTC (4 hours ago):

TAF YPAD 260503Z 2606/2712 23012KT 9999 SCT040 FM261000 14008KT 9999 FEW040 FM261400 VRB05KT 9999 FEW040 FM270200 23012KT CAVOK FM271000 15006KT CAVOK